EWG1GM EDDK-LOWW
Flight info
| Callsign | EWG1GM |
|---|---|
| Flight time | 1h 48m |
| Altitude | 35000 |
| Route | KUMIK1R KUMIK L603 TESGA DCT ESATI DCT BARSU DCT EKSOS DCT LULAR DCT RUDAP DCT BUDEX BUDEX2W |
| Aircraft | A320/M-SDE3FGHIRWY/LB1 |
Departure
| Time | 2026-05-06 19:04 |
|---|---|
| Airport | Cologne Bonn Airport (EDDK) |
Arrival
| Time | 2026-05-06 20:53 |
|---|---|
| Airport | Vienna International Airport (LOWW) |
| Time | Latitude | Longitude | Altitude | Speed | Heading |
|---|---|---|---|---|---|
| 2026-05-06 18:10 | 50.87769 | 7.12401 | 235 ft | 0 kts | 288° |
| 2026-05-06 18:43 | 50.87767 | 7.12414 | 232 ft | 4 kts | 288° |
| 2026-05-06 18:43 | 50.87758 | 7.12454 | 236 ft | 4 kts | 288° |
| 2026-05-06 18:43 | 50.87750 | 7.12491 | 234 ft | 2 kts | 288° |
| 2026-05-06 18:43 | 50.87740 | 7.12523 | 234 ft | 4 kts | 332° |
| 2026-05-06 18:44 | 50.87723 | 7.12528 | 234 ft | 0 kts | 15° |
| 2026-05-06 18:52 | 50.87727 | 7.12530 | 234 ft | 2 kts | 15° |
| 2026-05-06 18:52 | 50.87738 | 7.12536 | 234 ft | 2 kts | 21° |
| 2026-05-06 18:52 | 50.87759 | 7.12573 | 233 ft | 7 kts | 58° |
| 2026-05-06 18:53 | 50.87770 | 7.12676 | 232 ft | 10 kts | 98° |
| 2026-05-06 18:53 | 50.87729 | 7.12756 | 232 ft | 10 kts | 137° |
| 2026-05-06 18:53 | 50.87668 | 7.12846 | 232 ft | 14 kts | 137° |
| 2026-05-06 18:53 | 50.87581 | 7.12973 | 232 ft | 19 kts | 138° |
| 2026-05-06 18:54 | 50.87498 | 7.13093 | 232 ft | 11 kts | 137° |
| 2026-05-06 18:54 | 50.87450 | 7.13162 | 232 ft | 7 kts | 137° |
| 2026-05-06 18:54 | 50.87423 | 7.13201 | 232 ft | 4 kts | 139° |
| 2026-05-06 18:54 | 50.87401 | 7.13231 | 232 ft | 6 kts | 139° |
| 2026-05-06 18:55 | 50.87362 | 7.13304 | 234 ft | 11 kts | 116° |
| 2026-05-06 18:55 | 50.87347 | 7.13439 | 232 ft | 12 kts | 108° |
| 2026-05-06 18:55 | 50.87300 | 7.13533 | 234 ft | 12 kts | 137° |
| 2026-05-06 18:55 | 50.87228 | 7.13638 | 237 ft | 17 kts | 137° |
| 2026-05-06 18:56 | 50.87143 | 7.13760 | 240 ft | 14 kts | 137° |
| 2026-05-06 18:56 | 50.87068 | 7.13869 | 243 ft | 16 kts | 137° |
| 2026-05-06 18:56 | 50.86993 | 7.13979 | 248 ft | 11 kts | 137° |
| 2026-05-06 18:56 | 50.86947 | 7.14026 | 252 ft | 7 kts | 166° |
| 2026-05-06 18:57 | 50.86884 | 7.14012 | 255 ft | 12 kts | 191° |
| 2026-05-06 18:57 | 50.86805 | 7.14093 | 255 ft | 14 kts | 137° |
| 2026-05-06 18:57 | 50.86744 | 7.14134 | 255 ft | 6 kts | 175° |
| 2026-05-06 18:57 | 50.86719 | 7.14156 | 257 ft | 4 kts | 137° |
| 2026-05-06 18:58 | 50.86698 | 7.14188 | 258 ft | 5 kts | 136° |
| 2026-05-06 18:58 | 50.86685 | 7.14207 | 259 ft | 0 kts | 136° |
| 2026-05-06 18:59 | 50.86683 | 7.14210 | 259 ft | 2 kts | 136° |
| 2026-05-06 18:59 | 50.86644 | 7.14267 | 261 ft | 12 kts | 137° |
| 2026-05-06 18:59 | 50.86569 | 7.14377 | 262 ft | 18 kts | 137° |
| 2026-05-06 18:59 | 50.86471 | 7.14518 | 268 ft | 20 kts | 137° |
| 2026-05-06 19:00 | 50.86362 | 7.14676 | 274 ft | 22 kts | 137° |
| 2026-05-06 19:00 | 50.86238 | 7.14856 | 281 ft | 25 kts | 137° |
| 2026-05-06 19:00 | 50.86113 | 7.15037 | 287 ft | 24 kts | 137° |
| 2026-05-06 19:00 | 50.86033 | 7.15153 | 292 ft | 24 kts | 137° |
| 2026-05-06 19:01 | 50.85870 | 7.15390 | 300 ft | 24 kts | 137° |
| 2026-05-06 19:01 | 50.85746 | 7.15570 | 301 ft | 24 kts | 137° |
| 2026-05-06 19:01 | 50.85622 | 7.15749 | 305 ft | 24 kts | 138° |
| 2026-05-06 19:01 | 50.85500 | 7.15925 | 308 ft | 23 kts | 137° |
| 2026-05-06 19:02 | 50.85404 | 7.16064 | 308 ft | 14 kts | 137° |
| 2026-05-06 19:02 | 50.85346 | 7.16178 | 309 ft | 12 kts | 116° |
| 2026-05-06 19:02 | 50.85335 | 7.16301 | 308 ft | 11 kts | 82° |
| 2026-05-06 19:02 | 50.85359 | 7.16405 | 310 ft | 10 kts | 58° |
| 2026-05-06 19:03 | 50.85429 | 7.16500 | 308 ft | 16 kts | 26° |
| 2026-05-06 19:03 | 50.85541 | 7.16508 | 308 ft | 17 kts | 346° |
| 2026-05-06 19:03 | 50.85661 | 7.16362 | 310 ft | 42 kts | 317° |
| 2026-05-06 19:03 | 50.86058 | 7.15789 | 296 ft | 109 kts | 318° |
| 2026-05-06 19:04 | 50.86756 | 7.14784 | 271 ft | 160 kts | 318° |
| 2026-05-06 19:04 | 50.87622 | 7.13561 | 736 ft | 170 kts | 319° |
| 2026-05-06 19:04 | 50.88502 | 7.12280 | 1497 ft | 173 kts | 317° |
| 2026-05-06 19:04 | 50.89512 | 7.11263 | 1960 ft | 185 kts | 348° |
| 2026-05-06 19:05 | 50.90837 | 7.11578 | 2342 ft | 205 kts | 26° |
| 2026-05-06 19:05 | 50.92113 | 7.12635 | 3156 ft | 207 kts | 26° |
| 2026-05-06 19:05 | 50.93331 | 7.13894 | 3923 ft | 214 kts | 44° |
| 2026-05-06 19:05 | 50.94193 | 7.15948 | 4389 ft | 238 kts | 61° |
| 2026-05-06 19:06 | 50.94965 | 7.18405 | 4824 ft | 259 kts | 62° |
| 2026-05-06 19:06 | 50.95780 | 7.21022 | 4991 ft | 267 kts | 62° |
| 2026-05-06 19:06 | 50.96603 | 7.23665 | 5001 ft | 267 kts | 62° |
| 2026-05-06 19:06 | 50.97434 | 7.26303 | 5001 ft | 266 kts | 59° |
| 2026-05-06 19:07 | 50.98629 | 7.28484 | 5007 ft | 262 kts | 32° |
| 2026-05-06 19:07 | 50.99670 | 7.29436 | 5003 ft | 261 kts | 25° |
| 2026-05-06 19:07 | 51.01861 | 7.31113 | 5008 ft | 261 kts | 24° |
| 2026-05-06 19:07 | 51.03499 | 7.32335 | 5007 ft | 261 kts | 24° |
| 2026-05-06 19:08 | 51.05104 | 7.33697 | 4998 ft | 263 kts | 37° |
| 2026-05-06 19:08 | 51.06197 | 7.36031 | 5372 ft | 271 kts | 67° |
| 2026-05-06 19:08 | 51.06759 | 7.38898 | 6321 ft | 274 kts | 73° |
| 2026-05-06 19:08 | 51.07253 | 7.41840 | 7183 ft | 276 kts | 73° |
| 2026-05-06 19:09 | 51.07731 | 7.44814 | 8058 ft | 278 kts | 73° |
| 2026-05-06 19:09 | 51.08197 | 7.47809 | 8954 ft | 280 kts | 73° |
| 2026-05-06 19:09 | 51.08646 | 7.50834 | 9842 ft | 282 kts | 75° |
| 2026-05-06 19:09 | 51.08706 | 7.54032 | 10317 ft | 305 kts | 98° |
| 2026-05-06 19:10 | 51.07817 | 7.57236 | 10538 ft | 333 kts | 123° |
| 2026-05-06 19:10 | 51.06387 | 7.60218 | 11107 ft | 342 kts | 128° |
| 2026-05-06 19:10 | 51.04922 | 7.63231 | 11850 ft | 346 kts | 129° |
| 2026-05-06 19:10 | 51.03445 | 7.66273 | 12597 ft | 350 kts | 129° |
| 2026-05-06 19:11 | 51.01957 | 7.69350 | 13307 ft | 353 kts | 129° |
| 2026-05-06 19:11 | 51.00454 | 7.72472 | 13742 ft | 357 kts | 129° |
| 2026-05-06 19:11 | 50.99454 | 7.74554 | 13837 ft | 358 kts | 129° |
| 2026-05-06 19:11 | 50.97423 | 7.78785 | 14494 ft | 361 kts | 128° |
| 2026-05-06 19:12 | 50.96413 | 7.80890 | 14931 ft | 363 kts | 128° |
| 2026-05-06 19:12 | 50.94879 | 7.84090 | 15565 ft | 367 kts | 128° |
| 2026-05-06 19:12 | 50.92819 | 7.88377 | 16388 ft | 371 kts | 128° |
| 2026-05-06 19:12 | 50.91755 | 7.90586 | 16803 ft | 374 kts | 128° |
| 2026-05-06 19:13 | 50.90172 | 7.93873 | 17409 ft | 377 kts | 128° |
| 2026-05-06 19:13 | 50.88568 | 7.97195 | 17992 ft | 381 kts | 129° |
| 2026-05-06 19:13 | 50.86949 | 8.00539 | 18547 ft | 384 kts | 129° |
| 2026-05-06 19:13 | 50.85317 | 8.03905 | 19081 ft | 387 kts | 130° |
| 2026-05-06 19:14 | 50.83678 | 8.07286 | 19618 ft | 389 kts | 130° |
| 2026-05-06 19:14 | 50.82077 | 8.10769 | 20173 ft | 392 kts | 127° |
| 2026-05-06 19:14 | 50.80542 | 8.14348 | 20691 ft | 395 kts | 126° |
| 2026-05-06 19:14 | 50.79036 | 8.18005 | 21199 ft | 398 kts | 125° |
| 2026-05-06 19:15 | 50.77703 | 8.21284 | 21644 ft | 400 kts | 125° |
| 2026-05-06 19:15 | 50.76189 | 8.24992 | 22148 ft | 402 kts | 125° |
| 2026-05-06 19:15 | 50.74655 | 8.28693 | 22641 ft | 405 kts | 126° |
| 2026-05-06 19:15 | 50.73108 | 8.32363 | 23132 ft | 407 kts | 126° |
| 2026-05-06 19:16 | 50.71513 | 8.36089 | 23570 ft | 409 kts | 128° |
| 2026-05-06 19:16 | 50.69664 | 8.39493 | 23972 ft | 408 kts | 138° |
| 2026-05-06 19:16 | 50.67469 | 8.42345 | 24375 ft | 407 kts | 148° |
| 2026-05-06 19:16 | 50.65043 | 8.44573 | 24798 ft | 406 kts | 155° |
| 2026-05-06 19:17 | 50.62548 | 8.46658 | 25230 ft | 407 kts | 154° |
| 2026-05-06 19:17 | 50.60047 | 8.48763 | 25644 ft | 408 kts | 154° |
| 2026-05-06 19:17 | 50.57536 | 8.50886 | 26042 ft | 409 kts | 154° |
| 2026-05-06 19:17 | 50.55025 | 8.53008 | 26418 ft | 411 kts | 154° |
| 2026-05-06 19:18 | 50.52502 | 8.55141 | 26816 ft | 412 kts | 153° |
| 2026-05-06 19:18 | 50.49965 | 8.57282 | 27192 ft | 414 kts | 154° |
| 2026-05-06 19:18 | 50.47424 | 8.59423 | 27589 ft | 415 kts | 154° |
| 2026-05-06 19:18 | 50.44929 | 8.61718 | 27965 ft | 418 kts | 147° |
| 2026-05-06 19:19 | 50.42675 | 8.64606 | 28337 ft | 421 kts | 138° |
| 2026-05-06 19:19 | 50.40565 | 8.67815 | 28704 ft | 423 kts | 138° |
| 2026-05-06 19:19 | 50.38440 | 8.71030 | 29060 ft | 424 kts | 138° |
| 2026-05-06 19:19 | 50.36311 | 8.74240 | 29421 ft | 426 kts | 138° |
| 2026-05-06 19:20 | 50.34171 | 8.77456 | 29772 ft | 427 kts | 138° |
| 2026-05-06 19:20 | 50.32023 | 8.80680 | 30071 ft | 428 kts | 139° |
| 2026-05-06 19:20 | 50.29874 | 8.83904 | 30350 ft | 429 kts | 138° |
| 2026-05-06 19:20 | 50.27713 | 8.87142 | 30623 ft | 431 kts | 138° |
| 2026-05-06 19:21 | 50.25548 | 8.90379 | 30874 ft | 432 kts | 138° |
| 2026-05-06 19:21 | 50.23368 | 8.93640 | 31119 ft | 434 kts | 138° |
| 2026-05-06 19:21 | 50.21188 | 8.96899 | 31451 ft | 433 kts | 139° |
| 2026-05-06 19:21 | 50.19009 | 9.00150 | 31793 ft | 433 kts | 139° |
| 2026-05-06 19:22 | 50.16834 | 9.03384 | 32143 ft | 432 kts | 139° |
| 2026-05-06 19:22 | 50.14649 | 9.06628 | 32465 ft | 432 kts | 139° |
| 2026-05-06 19:22 | 50.12473 | 9.09854 | 32794 ft | 432 kts | 140° |
| 2026-05-06 19:22 | 50.10302 | 9.13079 | 33116 ft | 432 kts | 139° |
| 2026-05-06 19:23 | 50.08334 | 9.16632 | 33447 ft | 436 kts | 129° |
| 2026-05-06 19:23 | 50.06792 | 9.20658 | 33833 ft | 440 kts | 120° |
| 2026-05-06 19:23 | 50.05681 | 9.25177 | 34139 ft | 445 kts | 110° |
| 2026-05-06 19:23 | 50.05061 | 9.29868 | 34380 ft | 450 kts | 104° |
| 2026-05-06 19:24 | 50.04530 | 9.34659 | 34602 ft | 450 kts | 104° |
| 2026-05-06 19:24 | 50.03992 | 9.39463 | 34770 ft | 451 kts | 104° |
| 2026-05-06 19:24 | 50.03452 | 9.44240 | 34820 ft | 446 kts | 104° |
| 2026-05-06 19:25 | 50.02364 | 9.53684 | 34811 ft | 442 kts | 105° |
| 2026-05-06 19:25 | 50.01268 | 9.63098 | 34800 ft | 442 kts | 105° |
| 2026-05-06 19:26 | 50.00164 | 9.72515 | 34806 ft | 444 kts | 105° |
| 2026-05-06 19:26 | 49.99046 | 9.81961 | 34808 ft | 444 kts | 105° |
| 2026-05-06 19:27 | 49.97925 | 9.91391 | 34809 ft | 444 kts | 105° |
| 2026-05-06 19:27 | 49.96808 | 10.00737 | 34807 ft | 443 kts | 105° |
| 2026-05-06 19:28 | 49.95681 | 10.10159 | 34785 ft | 444 kts | 105° |
| 2026-05-06 19:28 | 49.94525 | 10.19669 | 34811 ft | 454 kts | 105° |
| 2026-05-06 19:29 | 49.93332 | 10.29411 | 34811 ft | 463 kts | 105° |
| 2026-05-06 19:29 | 49.92014 | 10.39203 | 34810 ft | 461 kts | 112° |
| 2026-05-06 19:30 | 49.89733 | 10.48426 | 34813 ft | 458 kts | 117° |
| 2026-05-06 19:30 | 49.87350 | 10.57603 | 34811 ft | 459 kts | 117° |
| 2026-05-06 19:31 | 49.84962 | 10.66800 | 34808 ft | 459 kts | 117° |
| 2026-05-06 19:31 | 49.81366 | 10.80581 | 34808 ft | 459 kts | 117° |
| 2026-05-06 19:32 | 49.78972 | 10.89684 | 34814 ft | 460 kts | 117° |
| 2026-05-06 19:32 | 49.76561 | 10.98856 | 34799 ft | 460 kts | 117° |
| 2026-05-06 19:33 | 49.74135 | 11.08050 | 34806 ft | 461 kts | 118° |
| 2026-05-06 19:33 | 49.71719 | 11.17176 | 34808 ft | 461 kts | 118° |
| 2026-05-06 19:34 | 49.69275 | 11.26347 | 34795 ft | 461 kts | 118° |
| 2026-05-06 19:34 | 49.66836 | 11.35446 | 34782 ft | 460 kts | 118° |
| 2026-05-06 19:35 | 49.64449 | 11.44641 | 34786 ft | 463 kts | 116° |
| 2026-05-06 19:35 | 49.62453 | 11.54140 | 34786 ft | 467 kts | 112° |
| 2026-05-06 19:36 | 49.60605 | 11.63760 | 34770 ft | 467 kts | 112° |
| 2026-05-06 19:36 | 49.58690 | 11.73298 | 34794 ft | 465 kts | 114° |
| 2026-05-06 19:37 | 49.56686 | 11.82773 | 34771 ft | 465 kts | 114° |
| 2026-05-06 19:37 | 49.54998 | 11.90636 | 34772 ft | 466 kts | 114° |
| 2026-05-06 19:38 | 49.52629 | 12.01732 | 34769 ft | 468 kts | 114° |
| 2026-05-06 19:38 | 49.50619 | 12.11203 | 34771 ft | 469 kts | 114° |
| 2026-05-06 19:39 | 49.48579 | 12.20760 | 34762 ft | 470 kts | 114° |
| 2026-05-06 19:39 | 49.46522 | 12.30323 | 34761 ft | 472 kts | 114° |
| 2026-05-06 19:40 | 49.44447 | 12.39899 | 34770 ft | 473 kts | 115° |
| 2026-05-06 19:40 | 49.42362 | 12.49482 | 34767 ft | 473 kts | 115° |
| 2026-05-06 19:41 | 49.40271 | 12.59063 | 34754 ft | 473 kts | 115° |
| 2026-05-06 19:41 | 49.38180 | 12.68650 | 34752 ft | 473 kts | 115° |
| 2026-05-06 19:42 | 49.36065 | 12.78208 | 34757 ft | 473 kts | 116° |
| 2026-05-06 19:42 | 49.33799 | 12.87657 | 34761 ft | 471 kts | 117° |
| 2026-05-06 19:43 | 49.31444 | 12.97034 | 34758 ft | 471 kts | 117° |
| 2026-05-06 19:43 | 49.29096 | 13.06413 | 34759 ft | 471 kts | 117° |
| 2026-05-06 19:44 | 49.26790 | 13.15743 | 34761 ft | 471 kts | 117° |
| 2026-05-06 19:44 | 49.24472 | 13.25127 | 34771 ft | 472 kts | 117° |
| 2026-05-06 19:45 | 49.22077 | 13.34469 | 34769 ft | 471 kts | 118° |
| 2026-05-06 19:45 | 49.19561 | 13.43709 | 34742 ft | 471 kts | 119° |
| 2026-05-06 19:46 | 49.17030 | 13.52949 | 34752 ft | 471 kts | 119° |
| 2026-05-06 19:46 | 49.14513 | 13.62214 | 34756 ft | 472 kts | 119° |
| 2026-05-06 19:47 | 49.12003 | 13.71464 | 34762 ft | 472 kts | 119° |
| 2026-05-06 19:47 | 49.09479 | 13.80714 | 34723 ft | 472 kts | 119° |
| 2026-05-06 19:48 | 49.06963 | 13.89884 | 34732 ft | 472 kts | 119° |
| 2026-05-06 19:48 | 49.04411 | 13.99134 | 34745 ft | 473 kts | 120° |
| 2026-05-06 19:49 | 49.01877 | 14.08305 | 34754 ft | 458 kts | 120° |
| 2026-05-06 19:49 | 49.00668 | 14.12709 | 34569 ft | 446 kts | 120° |
| 2026-05-06 19:49 | 48.99472 | 14.17040 | 34131 ft | 441 kts | 120° |
| 2026-05-06 19:50 | 48.98276 | 14.21333 | 33517 ft | 440 kts | 121° |
| 2026-05-06 19:50 | 48.97075 | 14.25616 | 32794 ft | 440 kts | 121° |
| 2026-05-06 19:50 | 48.95865 | 14.29902 | 32051 ft | 442 kts | 121° |
| 2026-05-06 19:50 | 48.94466 | 14.34031 | 31471 ft | 436 kts | 129° |
| 2026-05-06 19:51 | 48.92732 | 14.37775 | 30885 ft | 432 kts | 135° |
| 2026-05-06 19:51 | 48.90895 | 14.41402 | 30358 ft | 434 kts | 134° |
| 2026-05-06 19:51 | 48.89049 | 14.45056 | 29814 ft | 436 kts | 134° |
| 2026-05-06 19:51 | 48.87201 | 14.48715 | 29209 ft | 438 kts | 134° |
| 2026-05-06 19:52 | 48.85344 | 14.52397 | 28597 ft | 439 kts | 134° |
| 2026-05-06 19:52 | 48.83487 | 14.56076 | 27989 ft | 440 kts | 134° |
| 2026-05-06 19:52 | 48.81620 | 14.59761 | 27362 ft | 440 kts | 134° |
| 2026-05-06 19:52 | 48.79745 | 14.63447 | 26786 ft | 441 kts | 134° |
| 2026-05-06 19:53 | 48.77872 | 14.67122 | 26229 ft | 442 kts | 134° |
| 2026-05-06 19:53 | 48.75987 | 14.70816 | 25674 ft | 440 kts | 134° |
| 2026-05-06 19:53 | 48.74132 | 14.74457 | 25139 ft | 434 kts | 134° |
| 2026-05-06 19:53 | 48.72323 | 14.78011 | 24605 ft | 428 kts | 134° |
| 2026-05-06 19:54 | 48.70516 | 14.81556 | 24089 ft | 422 kts | 134° |
| 2026-05-06 19:54 | 48.68732 | 14.85045 | 23577 ft | 417 kts | 134° |
| 2026-05-06 19:54 | 48.66957 | 14.88499 | 23018 ft | 412 kts | 134° |
| 2026-05-06 19:54 | 48.65205 | 14.91896 | 22420 ft | 408 kts | 134° |
| 2026-05-06 19:55 | 48.63468 | 14.95256 | 21810 ft | 404 kts | 134° |
| 2026-05-06 19:55 | 48.61747 | 14.98584 | 21255 ft | 400 kts | 133° |
| 2026-05-06 19:55 | 48.60177 | 15.02034 | 20861 ft | 397 kts | 126° |
| 2026-05-06 19:55 | 48.58931 | 15.05677 | 20498 ft | 386 kts | 119° |
| 2026-05-06 19:56 | 48.58020 | 15.09401 | 20148 ft | 372 kts | 112° |
| 2026-05-06 19:56 | 48.57374 | 15.13110 | 19802 ft | 357 kts | 110° |
| 2026-05-06 19:56 | 48.56772 | 15.16672 | 19459 ft | 342 kts | 111° |
| 2026-05-06 19:56 | 48.56179 | 15.20102 | 19121 ft | 335 kts | 111° |
| 2026-05-06 19:57 | 48.55586 | 15.23484 | 18784 ft | 333 kts | 111° |
| 2026-05-06 19:57 | 48.54992 | 15.26852 | 18455 ft | 331 kts | 111° |
| 2026-05-06 19:57 | 48.54405 | 15.30201 | 18128 ft | 329 kts | 111° |
| 2026-05-06 19:57 | 48.53822 | 15.33542 | 17734 ft | 328 kts | 110° |
| 2026-05-06 19:58 | 48.53248 | 15.36844 | 17366 ft | 327 kts | 110° |
| 2026-05-06 19:58 | 48.52671 | 15.40154 | 16996 ft | 326 kts | 109° |
| 2026-05-06 19:58 | 48.52299 | 15.42337 | 16861 ft | 322 kts | 108° |
| 2026-05-06 19:58 | 48.51852 | 15.46701 | 16688 ft | 314 kts | 99° |
| 2026-05-06 19:59 | 48.51680 | 15.49944 | 16557 ft | 307 kts | 99° |
| 2026-05-06 19:59 | 48.51505 | 15.53110 | 16425 ft | 299 kts | 99° |
| 2026-05-06 19:59 | 48.51332 | 15.56199 | 16286 ft | 292 kts | 99° |
| 2026-05-06 19:59 | 48.51158 | 15.59235 | 16061 ft | 289 kts | 99° |
| 2026-05-06 20:00 | 48.51040 | 15.61262 | 15887 ft | 288 kts | 99° |
| 2026-05-06 20:00 | 48.50869 | 15.64224 | 15634 ft | 286 kts | 99° |
| 2026-05-06 20:00 | 48.50694 | 15.67246 | 15374 ft | 285 kts | 99° |
| 2026-05-06 20:00 | 48.50524 | 15.70180 | 15107 ft | 284 kts | 99° |
| 2026-05-06 20:01 | 48.50353 | 15.73139 | 14882 ft | 283 kts | 99° |
| 2026-05-06 20:01 | 48.50181 | 15.76079 | 14653 ft | 281 kts | 99° |
| 2026-05-06 20:01 | 48.50009 | 15.78997 | 14423 ft | 279 kts | 99° |
| 2026-05-06 20:01 | 48.49837 | 15.81900 | 14189 ft | 277 kts | 99° |
| 2026-05-06 20:02 | 48.49667 | 15.84787 | 13950 ft | 276 kts | 99° |
| 2026-05-06 20:02 | 48.49499 | 15.87658 | 13781 ft | 275 kts | 99° |
| 2026-05-06 20:02 | 48.49328 | 15.90527 | 13751 ft | 275 kts | 99° |
| 2026-05-06 20:02 | 48.49154 | 15.93396 | 13754 ft | 275 kts | 99° |
| 2026-05-06 20:03 | 48.48979 | 15.96271 | 13752 ft | 275 kts | 99° |
| 2026-05-06 20:03 | 48.48803 | 15.99144 | 13756 ft | 275 kts | 99° |
| 2026-05-06 20:03 | 48.48626 | 16.02014 | 13758 ft | 275 kts | 99° |
| 2026-05-06 20:03 | 48.48449 | 16.04894 | 13751 ft | 275 kts | 99° |
| 2026-05-06 20:04 | 48.48273 | 16.07768 | 13752 ft | 275 kts | 99° |
| 2026-05-06 20:04 | 48.48062 | 16.10619 | 13755 ft | 273 kts | 107° |
| 2026-05-06 20:04 | 48.47305 | 16.13160 | 13755 ft | 263 kts | 133° |
| 2026-05-06 20:04 | 48.45982 | 16.14926 | 13753 ft | 255 kts | 156° |
| 2026-05-06 20:05 | 48.44328 | 16.15749 | 13751 ft | 248 kts | 178° |
| 2026-05-06 20:05 | 48.42649 | 16.15558 | 13759 ft | 240 kts | 198° |
| 2026-05-06 20:05 | 48.41170 | 16.14457 | 13759 ft | 238 kts | 218° |
| 2026-05-06 20:05 | 48.40061 | 16.12613 | 13766 ft | 241 kts | 238° |
| 2026-05-06 20:06 | 48.39470 | 16.10229 | 13759 ft | 248 kts | 259° |
| 2026-05-06 20:06 | 48.39530 | 16.07623 | 13757 ft | 254 kts | 280° |
| 2026-05-06 20:06 | 48.40015 | 16.05044 | 13756 ft | 257 kts | 283° |
| 2026-05-06 20:06 | 48.40578 | 16.02491 | 13757 ft | 257 kts | 285° |
| 2026-05-06 20:07 | 48.41165 | 15.99943 | 13752 ft | 258 kts | 285° |
| 2026-05-06 20:07 | 48.41756 | 15.97391 | 13755 ft | 257 kts | 285° |
| 2026-05-06 20:07 | 48.42342 | 15.94845 | 13755 ft | 258 kts | 286° |
| 2026-05-06 20:07 | 48.43256 | 15.92502 | 13751 ft | 265 kts | 309° |
| 2026-05-06 20:08 | 48.44771 | 15.90875 | 13759 ft | 273 kts | 335° |
| 2026-05-06 20:08 | 48.46643 | 15.90345 | 13759 ft | 280 kts | 1° |
| 2026-05-06 20:08 | 48.48498 | 15.91094 | 13750 ft | 283 kts | 29° |
| 2026-05-06 20:08 | 48.49989 | 15.93051 | 13754 ft | 282 kts | 58° |
| 2026-05-06 20:09 | 48.50737 | 15.95740 | 13755 ft | 278 kts | 85° |
| 2026-05-06 20:09 | 48.50662 | 15.98553 | 13747 ft | 271 kts | 109° |
| 2026-05-06 20:09 | 48.50127 | 16.01273 | 13750 ft | 271 kts | 112° |
| 2026-05-06 20:09 | 48.49531 | 16.03966 | 13752 ft | 271 kts | 113° |
| 2026-05-06 20:10 | 48.48915 | 16.06654 | 13753 ft | 271 kts | 113° |
| 2026-05-06 20:10 | 48.48249 | 16.09344 | 13302 ft | 279 kts | 123° |
| 2026-05-06 20:10 | 48.46979 | 16.11400 | 12932 ft | 262 kts | 151° |
| 2026-05-06 20:10 | 48.45385 | 16.12643 | 12459 ft | 256 kts | 162° |
| 2026-05-06 20:11 | 48.43724 | 16.13565 | 11988 ft | 254 kts | 165° |
| 2026-05-06 20:11 | 48.42055 | 16.14429 | 11589 ft | 253 kts | 164° |
| 2026-05-06 20:11 | 48.40412 | 16.15321 | 11241 ft | 250 kts | 163° |
| 2026-05-06 20:11 | 48.38813 | 16.16247 | 10958 ft | 249 kts | 162° |
| 2026-05-06 20:12 | 48.37191 | 16.17237 | 10678 ft | 249 kts | 161° |
| 2026-05-06 20:12 | 48.35593 | 16.18245 | 10516 ft | 250 kts | 161° |
| 2026-05-06 20:12 | 48.33992 | 16.19271 | 10393 ft | 250 kts | 160° |
| 2026-05-06 20:12 | 48.32492 | 16.20534 | 10274 ft | 254 kts | 144° |
| 2026-05-06 20:13 | 48.31304 | 16.22526 | 10089 ft | 260 kts | 124° |
| 2026-05-06 20:13 | 48.30633 | 16.25045 | 9886 ft | 260 kts | 104° |
| 2026-05-06 20:13 | 48.30574 | 16.27708 | 9768 ft | 252 kts | 84° |
| 2026-05-06 20:13 | 48.31041 | 16.30239 | 9655 ft | 251 kts | 68° |
| 2026-05-06 20:14 | 48.31971 | 16.32432 | 9523 ft | 250 kts | 46° |
| 2026-05-06 20:14 | 48.33350 | 16.33981 | 9378 ft | 249 kts | 23° |
| 2026-05-06 20:14 | 48.34997 | 16.34663 | 9168 ft | 245 kts | 0° |
| 2026-05-06 20:14 | 48.36665 | 16.34414 | 8957 ft | 240 kts | 340° |
| 2026-05-06 20:15 | 48.38263 | 16.33715 | 8792 ft | 239 kts | 340° |
| 2026-05-06 20:15 | 48.39858 | 16.33027 | 8691 ft | 238 kts | 340° |
| 2026-05-06 20:15 | 48.41444 | 16.32345 | 8369 ft | 236 kts | 340° |
| 2026-05-06 20:15 | 48.43025 | 16.31664 | 8084 ft | 236 kts | 339° |
| 2026-05-06 20:16 | 48.44601 | 16.30980 | 7837 ft | 234 kts | 340° |
| 2026-05-06 20:16 | 48.46159 | 16.30287 | 7606 ft | 232 kts | 339° |
| 2026-05-06 20:16 | 48.47707 | 16.29601 | 7372 ft | 231 kts | 340° |
| 2026-05-06 20:16 | 48.49246 | 16.28914 | 7147 ft | 230 kts | 340° |
| 2026-05-06 20:17 | 48.50774 | 16.28248 | 6923 ft | 228 kts | 340° |
| 2026-05-06 20:17 | 48.52288 | 16.27583 | 6709 ft | 226 kts | 340° |
| 2026-05-06 20:17 | 48.53776 | 16.26938 | 6582 ft | 219 kts | 339° |
| 2026-05-06 20:17 | 48.55252 | 16.26535 | 6448 ft | 217 kts | 1° |
| 2026-05-06 20:18 | 48.56649 | 16.27329 | 6324 ft | 218 kts | 38° |
| 2026-05-06 20:18 | 48.57643 | 16.29023 | 6150 ft | 216 kts | 53° |
| 2026-05-06 20:18 | 48.58492 | 16.30897 | 5896 ft | 217 kts | 58° |
| 2026-05-06 20:18 | 48.59008 | 16.33005 | 5673 ft | 213 kts | 88° |
| 2026-05-06 20:19 | 48.58980 | 16.35215 | 5457 ft | 208 kts | 107° |
| 2026-05-06 20:19 | 48.58559 | 16.37289 | 5244 ft | 206 kts | 112° |
| 2026-05-06 20:19 | 48.58059 | 16.39308 | 5054 ft | 205 kts | 116° |
| 2026-05-06 20:19 | 48.57552 | 16.41338 | 4981 ft | 208 kts | 115° |
| 2026-05-06 20:20 | 48.57042 | 16.43369 | 4979 ft | 207 kts | 117° |
| 2026-05-06 20:20 | 48.56530 | 16.45402 | 4984 ft | 206 kts | 115° |
| 2026-05-06 20:20 | 48.55921 | 16.47341 | 4970 ft | 202 kts | 136° |
| 2026-05-06 20:20 | 48.54851 | 16.48597 | 4984 ft | 199 kts | 158° |
| 2026-05-06 20:21 | 48.53553 | 16.48973 | 4981 ft | 188 kts | 194° |
| 2026-05-06 20:21 | 48.52303 | 16.48457 | 4990 ft | 186 kts | 204° |
| 2026-05-06 20:21 | 48.51092 | 16.47772 | 4989 ft | 186 kts | 205° |
| 2026-05-06 20:21 | 48.49887 | 16.47057 | 4988 ft | 187 kts | 205° |
| 2026-05-06 20:22 | 48.48679 | 16.46328 | 4989 ft | 187 kts | 205° |
| 2026-05-06 20:22 | 48.47484 | 16.45601 | 4988 ft | 187 kts | 206° |
| 2026-05-06 20:22 | 48.46281 | 16.44876 | 4987 ft | 186 kts | 206° |
| 2026-05-06 20:22 | 48.45057 | 16.44225 | 4983 ft | 188 kts | 194° |
| 2026-05-06 20:23 | 48.43738 | 16.44276 | 4985 ft | 194 kts | 170° |
| 2026-05-06 20:23 | 48.42432 | 16.44831 | 4987 ft | 196 kts | 169° |
| 2026-05-06 20:23 | 48.41142 | 16.45391 | 5014 ft | 195 kts | 164° |
| 2026-05-06 20:23 | 48.39833 | 16.45955 | 5000 ft | 196 kts | 169° |
| 2026-05-06 20:24 | 48.38529 | 16.46514 | 5016 ft | 195 kts | 169° |
| 2026-05-06 20:24 | 48.37225 | 16.47071 | 5007 ft | 194 kts | 169° |
| 2026-05-06 20:24 | 48.35925 | 16.47627 | 4995 ft | 194 kts | 169° |
| 2026-05-06 20:24 | 48.34620 | 16.48185 | 4991 ft | 196 kts | 169° |
| 2026-05-06 20:25 | 48.33305 | 16.48746 | 4839 ft | 196 kts | 169° |
| 2026-05-06 20:25 | 48.32022 | 16.49296 | 4612 ft | 192 kts | 170° |
| 2026-05-06 20:25 | 48.30745 | 16.49840 | 4360 ft | 189 kts | 170° |
| 2026-05-06 20:25 | 48.29495 | 16.50374 | 4136 ft | 185 kts | 170° |
| 2026-05-06 20:26 | 48.28271 | 16.50896 | 3874 ft | 181 kts | 171° |
| 2026-05-06 20:26 | 48.27089 | 16.51401 | 3640 ft | 175 kts | 172° |
| 2026-05-06 20:26 | 48.25940 | 16.51891 | 3431 ft | 167 kts | 172° |
| 2026-05-06 20:26 | 48.24867 | 16.52351 | 3232 ft | 151 kts | 173° |
| 2026-05-06 20:27 | 48.24669 | 16.52436 | 3191 ft | 146 kts | 173° |
| 2026-05-06 20:27 | 48.23726 | 16.52840 | 2997 ft | 134 kts | 174° |
| 2026-05-06 20:27 | 48.22845 | 16.53211 | 2831 ft | 129 kts | 174° |
| 2026-05-06 20:27 | 48.21958 | 16.53583 | 2660 ft | 135 kts | 174° |
| 2026-05-06 20:28 | 48.21055 | 16.53967 | 2483 ft | 132 kts | 173° |
| 2026-05-06 20:28 | 48.20545 | 16.54184 | 2381 ft | 129 kts | 174° |
| 2026-05-06 20:28 | 48.19688 | 16.54547 | 2216 ft | 127 kts | 173° |
| 2026-05-06 20:28 | 48.18872 | 16.54894 | 2062 ft | 126 kts | 172° |
| 2026-05-06 20:29 | 48.18020 | 16.55254 | 1882 ft | 129 kts | 171° |
| 2026-05-06 20:29 | 48.17164 | 16.55618 | 1715 ft | 127 kts | 170° |
| 2026-05-06 20:29 | 48.16317 | 16.55977 | 1542 ft | 127 kts | 169° |
| 2026-05-06 20:29 | 48.15469 | 16.56336 | 1375 ft | 127 kts | 168° |
| 2026-05-06 20:30 | 48.14622 | 16.56695 | 1204 ft | 125 kts | 167° |
| 2026-05-06 20:30 | 48.12938 | 16.57408 | 845 ft | 126 kts | 165° |
| 2026-05-06 20:30 | 48.12084 | 16.57770 | 676 ft | 127 kts | 166° |
| 2026-05-06 20:31 | 48.11174 | 16.58139 | 1012 ft | 142 kts | 165° |
| 2026-05-06 20:31 | 48.10172 | 16.58580 | 1634 ft | 161 kts | 167° |
| 2026-05-06 20:31 | 48.09052 | 16.59099 | 2158 ft | 173 kts | 169° |
| 2026-05-06 20:31 | 48.07868 | 16.59736 | 2580 ft | 191 kts | 167° |
| 2026-05-06 20:32 | 48.06593 | 16.60461 | 3255 ft | 200 kts | 167° |
| 2026-05-06 20:32 | 48.05259 | 16.61227 | 3847 ft | 217 kts | 167° |
| 2026-05-06 20:32 | 48.03717 | 16.62078 | 3997 ft | 256 kts | 166° |
| 2026-05-06 20:32 | 48.01902 | 16.63019 | 4033 ft | 295 kts | 166° |
| 2026-05-06 20:33 | 47.99999 | 16.63992 | 4022 ft | 277 kts | 166° |
| 2026-05-06 20:33 | 47.98290 | 16.64904 | 4023 ft | 245 kts | 167° |
| 2026-05-06 20:33 | 47.96792 | 16.66101 | 4029 ft | 253 kts | 144° |
| 2026-05-06 20:33 | 47.95769 | 16.68362 | 4031 ft | 276 kts | 116° |
| 2026-05-06 20:34 | 47.95539 | 16.71259 | 4031 ft | 287 kts | 86° |
| 2026-05-06 20:34 | 47.96200 | 16.73984 | 4026 ft | 276 kts | 56° |
| 2026-05-06 20:34 | 47.97590 | 16.75878 | 4033 ft | 270 kts | 24° |
| 2026-05-06 20:34 | 47.99353 | 16.76594 | 4030 ft | 262 kts | 360° |
| 2026-05-06 20:35 | 48.01144 | 16.76738 | 4029 ft | 261 kts | 356° |
| 2026-05-06 20:35 | 48.02962 | 16.76806 | 4057 ft | 263 kts | 355° |
| 2026-05-06 20:35 | 48.04788 | 16.76860 | 4887 ft | 262 kts | 356° |
| 2026-05-06 20:35 | 48.06617 | 16.76904 | 5649 ft | 265 kts | 355° |
| 2026-05-06 20:36 | 48.08465 | 16.76931 | 5928 ft | 265 kts | 356° |
| 2026-05-06 20:36 | 48.10309 | 16.76942 | 6015 ft | 265 kts | 355° |
| 2026-05-06 20:36 | 48.12149 | 16.76947 | 6027 ft | 264 kts | 355° |
| 2026-05-06 20:36 | 48.13974 | 16.76789 | 6028 ft | 261 kts | 347° |
| 2026-05-06 20:37 | 48.15771 | 16.76396 | 6028 ft | 261 kts | 346° |
| 2026-05-06 20:37 | 48.17565 | 16.75972 | 6027 ft | 260 kts | 346° |
| 2026-05-06 20:37 | 48.19351 | 16.75534 | 6028 ft | 259 kts | 342° |
| 2026-05-06 20:37 | 48.21079 | 16.74809 | 6026 ft | 257 kts | 336° |
| 2026-05-06 20:38 | 48.22783 | 16.73979 | 6027 ft | 257 kts | 335° |
| 2026-05-06 20:38 | 48.24481 | 16.73137 | 6023 ft | 257 kts | 335° |
| 2026-05-06 20:38 | 48.26180 | 16.72291 | 6021 ft | 257 kts | 335° |
| 2026-05-06 20:38 | 48.27849 | 16.71460 | 6017 ft | 250 kts | 335° |
| 2026-05-06 20:39 | 48.29461 | 16.70677 | 6017 ft | 237 kts | 335° |
| 2026-05-06 20:39 | 48.31023 | 16.69921 | 6018 ft | 235 kts | 336° |
| 2026-05-06 20:39 | 48.32570 | 16.69139 | 6013 ft | 234 kts | 335° |
| 2026-05-06 20:39 | 48.34114 | 16.68352 | 6011 ft | 233 kts | 335° |
| 2026-05-06 20:40 | 48.35649 | 16.67569 | 6008 ft | 233 kts | 335° |
| 2026-05-06 20:40 | 48.37186 | 16.66784 | 6007 ft | 234 kts | 335° |
| 2026-05-06 20:40 | 48.38728 | 16.65994 | 6004 ft | 234 kts | 335° |
| 2026-05-06 20:40 | 48.40270 | 16.65202 | 6002 ft | 234 kts | 335° |
| 2026-05-06 20:41 | 48.41817 | 16.64405 | 5999 ft | 234 kts | 335° |
| 2026-05-06 20:41 | 48.43360 | 16.63608 | 5995 ft | 234 kts | 335° |
| 2026-05-06 20:41 | 48.44901 | 16.62809 | 5992 ft | 232 kts | 335° |
| 2026-05-06 20:41 | 48.46396 | 16.62042 | 5885 ft | 224 kts | 335° |
| 2026-05-06 20:42 | 48.47840 | 16.61271 | 5773 ft | 215 kts | 330° |
| 2026-05-06 20:42 | 48.48922 | 16.59880 | 5636 ft | 200 kts | 301° |
| 2026-05-06 20:42 | 48.49643 | 16.58156 | 5517 ft | 194 kts | 296° |
| 2026-05-06 20:42 | 48.50289 | 16.56410 | 5365 ft | 188 kts | 292° |
| 2026-05-06 20:43 | 48.50497 | 16.54553 | 5207 ft | 180 kts | 262° |
| 2026-05-06 20:43 | 48.50272 | 16.52702 | 5043 ft | 179 kts | 256° |
| 2026-05-06 20:43 | 48.49707 | 16.51054 | 4988 ft | 181 kts | 223° |
| 2026-05-06 20:43 | 48.48655 | 16.49976 | 4988 ft | 185 kts | 212° |
| 2026-05-06 20:44 | 48.47516 | 16.49061 | 4987 ft | 184 kts | 211° |
| 2026-05-06 20:44 | 48.46413 | 16.48210 | 4978 ft | 172 kts | 211° |
| 2026-05-06 20:44 | 48.45372 | 16.47411 | 5007 ft | 166 kts | 211° |
| 2026-05-06 20:44 | 48.44348 | 16.46635 | 4992 ft | 164 kts | 211° |
| 2026-05-06 20:45 | 48.43331 | 16.45872 | 4989 ft | 164 kts | 210° |
| 2026-05-06 20:45 | 48.42264 | 16.45257 | 4989 ft | 167 kts | 192° |
| 2026-05-06 20:45 | 48.41092 | 16.45404 | 4993 ft | 174 kts | 169° |
| 2026-05-06 20:45 | 48.39926 | 16.45907 | 4997 ft | 174 kts | 169° |
| 2026-05-06 20:46 | 48.38766 | 16.46409 | 5000 ft | 174 kts | 169° |
| 2026-05-06 20:46 | 48.37602 | 16.46909 | 5003 ft | 174 kts | 169° |
| 2026-05-06 20:46 | 48.36440 | 16.47407 | 5005 ft | 174 kts | 169° |
| 2026-05-06 20:46 | 48.35289 | 16.47899 | 5007 ft | 174 kts | 169° |
| 2026-05-06 20:47 | 48.34125 | 16.48396 | 4961 ft | 175 kts | 169° |
| 2026-05-06 20:47 | 48.32955 | 16.48896 | 4797 ft | 174 kts | 170° |
| 2026-05-06 20:47 | 48.31798 | 16.49391 | 4591 ft | 171 kts | 170° |
| 2026-05-06 20:47 | 48.30652 | 16.49880 | 4361 ft | 171 kts | 171° |
| 2026-05-06 20:48 | 48.29510 | 16.50367 | 4155 ft | 170 kts | 171° |
| 2026-05-06 20:48 | 48.28378 | 16.50850 | 3926 ft | 168 kts | 171° |
| 2026-05-06 20:48 | 48.27269 | 16.51323 | 3698 ft | 163 kts | 172° |
| 2026-05-06 20:48 | 48.26552 | 16.51629 | 3553 ft | 160 kts | 172° |
| 2026-05-06 20:49 | 48.25505 | 16.52076 | 3348 ft | 153 kts | 173° |
| 2026-05-06 20:49 | 48.24493 | 16.52506 | 3152 ft | 150 kts | 173° |
| 2026-05-06 20:49 | 48.23498 | 16.52929 | 2957 ft | 148 kts | 173° |
| 2026-05-06 20:49 | 48.22522 | 16.53344 | 2772 ft | 145 kts | 172° |
| 2026-05-06 20:50 | 48.21252 | 16.53883 | 2522 ft | 142 kts | 172° |
| 2026-05-06 20:50 | 48.20621 | 16.54152 | 2416 ft | 136 kts | 173° |
| 2026-05-06 20:50 | 48.19473 | 16.54641 | 2176 ft | 126 kts | 173° |
| 2026-05-06 20:50 | 48.18902 | 16.54883 | 2068 ft | 125 kts | 173° |
| 2026-05-06 20:51 | 48.18059 | 16.55238 | 1887 ft | 127 kts | 172° |
| 2026-05-06 20:51 | 48.17215 | 16.55597 | 1723 ft | 125 kts | 171° |
| 2026-05-06 20:51 | 48.16378 | 16.55951 | 1552 ft | 126 kts | 169° |
| 2026-05-06 20:51 | 48.15551 | 16.56301 | 1385 ft | 125 kts | 169° |
| 2026-05-06 20:52 | 48.14705 | 16.56660 | 1219 ft | 125 kts | 165° |
| 2026-05-06 20:52 | 48.13869 | 16.57015 | 1048 ft | 126 kts | 164° |
| 2026-05-06 20:52 | 48.13013 | 16.57378 | 854 ft | 126 kts | 162° |
| 2026-05-06 20:52 | 48.12173 | 16.57734 | 696 ft | 126 kts | 165° |
| 2026-05-06 20:53 | 48.11364 | 16.58077 | 626 ft | 110 kts | 165° |
| 2026-05-06 20:53 | 48.10900 | 16.58273 | 614 ft | 29 kts | 166° |
| 2026-05-06 20:53 | 48.10744 | 16.58295 | 610 ft | 20 kts | 182° |
| 2026-05-06 20:53 | 48.10626 | 16.58252 | 613 ft | 13 kts | 195° |
| 2026-05-06 20:54 | 48.10559 | 16.58224 | 610 ft | 10 kts | 203° |
| 2026-05-06 20:54 | 48.10568 | 16.58145 | 619 ft | 8 kts | 325° |
| 2026-05-06 20:54 | 48.10635 | 16.58103 | 616 ft | 13 kts | 347° |
| 2026-05-06 20:54 | 48.10744 | 16.58060 | 620 ft | 19 kts | 343° |
| 2026-05-06 20:55 | 48.10872 | 16.58005 | 615 ft | 19 kts | 344° |
| 2026-05-06 20:55 | 48.10974 | 16.57904 | 619 ft | 20 kts | 311° |
| 2026-05-06 20:55 | 48.11055 | 16.57750 | 618 ft | 18 kts | 296° |
| 2026-05-06 20:55 | 48.11108 | 16.57585 | 627 ft | 18 kts | 296° |
| 2026-05-06 20:56 | 48.11166 | 16.57404 | 615 ft | 20 kts | 295° |
| 2026-05-06 20:56 | 48.11233 | 16.57204 | 624 ft | 23 kts | 296° |
| 2026-05-06 20:56 | 48.11309 | 16.56964 | 618 ft | 28 kts | 296° |
| 2026-05-06 20:56 | 48.11400 | 16.56686 | 616 ft | 31 kts | 296° |
| 2026-05-06 20:57 | 48.11493 | 16.56398 | 619 ft | 30 kts | 296° |
| 2026-05-06 20:57 | 48.11577 | 16.56140 | 616 ft | 23 kts | 296° |
| 2026-05-06 20:57 | 48.11646 | 16.55930 | 624 ft | 23 kts | 295° |
| 2026-05-06 20:57 | 48.11714 | 16.55719 | 614 ft | 22 kts | 296° |
| 2026-05-06 20:58 | 48.11780 | 16.55523 | 615 ft | 20 kts | 295° |
| 2026-05-06 20:58 | 48.11835 | 16.55423 | 614 ft | 12 kts | 3° |
| 2026-05-06 20:58 | 48.11901 | 16.55438 | 611 ft | 7 kts | 8° |
| 2026-05-06 20:58 | 48.11920 | 16.55485 | 617 ft | 6 kts | 69° |
| 2026-05-06 20:59 | 48.11938 | 16.55540 | 623 ft | 5 kts | 63° |
| 2026-05-06 20:59 | 48.11949 | 16.55575 | 618 ft | 2 kts | 64° |
| 2026-05-06 20:59 | 48.11954 | 16.55588 | 619 ft | 0 kts | 64° |
| 2026-05-06 20:59 | 48.11955 | 16.55592 | 623 ft | 0 kts | 64° |